Time;durP1;ratioP1;P1;durP2;ratioP2;P2;SDS_P1;SDS_P2;PMS_P1;PMS_P2;Temp;Humidity;BMP_temperature;BMP_pressure;BME280_temperature;BME280_humidity;BME280_pressure;Samples;Min_cycle;Max_cycle;Signal;HPM_P1;HPM_P2
2022/09/28 00:00:13;;;;;;;;;;;;;;;16.59;79.97;99703.25;5033900;28;20465;-88
2022/09/28 00:02:39;;;;;;;;;;;;;;;16.59;79.71;99700.53;5039726;28;19920;-90
2022/09/28 00:05:07;;;;;;;;;;;;;;;16.53;79.62;99696.03;5011382;28;19944;-89
2022/09/28 00:07:32;;;;;;;;;;;;;;;16.44;79.62;99691.94;5030576;28;20385;-89
2022/09/28 00:09:58;;;;;;;;;;;;;;;16.38;79.60;99690.94;5051450;28;19920;-88
2022/09/28 00:12:24;;;;;;;;;;;;;;;16.37;79.51;99691.16;5014544;28;19967;-88
2022/09/28 00:14:50;;;;;;;;;;;;;;;16.46;79.52;99687.13;5026343;28;19956;-89
2022/09/28 00:17:16;;;;;;;;;;;;;;;16.48;79.18;99676.03;5052891;28;20011;-89
2022/09/28 00:19:42;;;;;;;;;;;;;;;16.42;78.94;99675.03;5018574;28;20033;-89
2022/09/28 00:22:09;;;;;;;;;;;;;;;16.34;78.70;99686.16;5034883;28;19944;-89
2022/09/28 00:24:40;;;;;;;;;;;;;;;16.30;79.24;99693.94;5036988;28;19912;-89
2022/09/28 00:27:08;;;;;;;;;;;;;;;16.21;79.51;99689.84;5039401;28;20425;-88
2022/09/28 00:29:36;;;;;;;;;;;;;;;16.17;80.64;99700.28;5046150;28;19968;-91
2022/09/28 00:32:09;;;;;;;;;;;;;;;16.18;80.56;99709.28;5065476;28;19916;-87
2022/09/28 00:34:36;;;;;;;;;;;;;;;16.08;80.60;99717.88;5048146;28;19971;-90
2022/09/28 00:37:02;;;;;;;;;;;;;;;16.04;81.18;99706.66;5051254;28;19921;-88
2022/09/28 00:39:30;;;;;;;;;;;;;;;16.08;81.19;99704.31;5047084;28;19952;-90
2022/09/28 00:41:57;;;;;;;;;;;;;;;16.12;81.08;99699.28;5035644;28;20420;-90
2022/09/28 00:44:34;;;;;;;;;;;;;;;16.03;81.79;99712.28;5017727;28;19917;-90
2022/09/28 00:47:06;;;;;;;;;;;;;;;15.98;82.54;99715.66;5067015;28;19956;-91
2022/09/28 00:49:32;;;;;;;;;;;;;;;16.07;82.04;99718.94;5054996;28;20008;-93
2022/09/28 00:51:58;;;;;;;;;;;;;;;16.02;82.04;99718.78;5071339;28;19912;-90
2022/09/28 00:54:24;;;;;;;;;;;;;;;15.94;82.80;99721.72;5060832;28;19940;-90
2022/09/28 00:56:51;;;;;;;;;;;;;;;15.99;82.93;99727.31;5059926;28;20296;-90
2022/09/28 00:59:16;;;;;;;;;;;;;;;15.96;83.15;99722.34;5049373;28;19916;-91
2022/09/28 01:01:42;;;;;;;;;;;;;;;15.89;83.60;99721.56;5023448;28;19924;-90
2022/09/28 01:04:07;;;;;;;;;;;;;;;15.90;83.61;99726.78;5047414;28;19978;-91
2022/09/28 01:06:33;;;;;;;;;;;;;;;15.93;83.57;99720.09;5023253;28;20005;-90
2022/09/28 01:09:01;;;;;;;;;;;;;;;15.85;83.61;99726.59;5032816;28;19921;-90
2022/09/28 01:11:27;;;;;;;;;;;;;;;15.68;84.90;99731.66;5024425;28;19920;-89
2022/09/28 01:13:53;;;;;;;;;;;;;;;15.61;85.56;99730.84;5013732;28;19959;-89
2022/09/28 01:16:22;;;;;;;;;;;;;;;15.63;85.55;99729.59;5032768;28;20008;-93
2022/09/28 01:18:58;;;;;;;;;;;;;;;15.65;85.63;99732.09;5031326;28;19924;-92
2022/09/28 01:21:24;;;;;;;;;;;;;;;15.58;85.65;99715.03;5027163;28;19917;-91
2022/09/28 01:23:53;;;;;;;;;;;;;;;15.63;85.61;99717.94;5023694;28;20311;-87
2022/09/28 01:26:21;;;;;;;;;;;;;;;15.57;85.63;99719.63;5028903;28;19916;-90
2022/09/28 01:28:49;;;;;;;;;;;;;;;15.49;85.16;99716.34;5047407;28;19917;-88
2022/09/28 01:31:15;;;;;;;;;;;;;;;15.53;84.91;99718.41;5030600;28;20384;-89
2022/09/28 01:33:41;;;;;;;;;;;;;;;15.55;84.35;99721.72;5009929;28;19943;-88
2022/09/28 01:36:14;;;;;;;;;;;;;;;15.40;85.38;99719.31;5031873;28;19916;-90
2022/09/28 01:38:42;;;;;;;;;;;;;;;15.39;85.47;99719.50;5046398;28;19920;-89
2022/09/28 01:41:08;;;;;;;;;;;;;;;15.33;85.49;99726.59;5031858;28;20561;-88
2022/09/28 01:43:34;;;;;;;;;;;;;;;15.36;85.32;99719.97;5032623;28;20432;-88
2022/09/28 01:46:21;;;;;;;;;;;;;;;15.40;85.34;99719.31;5014187;28;19917;-88
2022/09/28 01:48:50;;;;;;;;;;;;;;;15.38;84.84;99721.41;5042917;28;19917;-87
2022/09/28 01:51:17;;;;;;;;;;;;;;;15.28;85.00;99721.00;5007446;28;20011;-89
2022/09/28 01:53:45;;;;;;;;;;;;;;;15.35;84.94;99715.56;5029091;28;19979;-88
2022/09/28 01:56:11;;;;;;;;;;;;;;;15.37;84.31;99719.72;5046099;28;20381;-88
2022/09/28 01:58:44;;;;;;;;;;;;;;;15.46;83.82;99722.19;5029142;28;20345;-89
2022/09/28 02:01:17;;;;;;;;;;;;;;;15.38;83.99;99715.97;5029250;28;19916;-89
2022/09/28 02:04:00;;;;;;;;;;;;;;;15.33;84.40;99718.47;5028772;28;19923;-90
2022/09/28 02:06:31;;;;;;;;;;;;;;;15.27;84.29;99719.34;5047551;28;19916;-88
2022/09/28 02:08:59;;;;;;;;;;;;;;;15.23;84.47;99707.28;5016952;28;19924;-89
2022/09/28 02:11:25;;;;;;;;;;;;;;;15.22;84.28;99705.63;5030991;28;19931;-90
2022/09/28 02:14:04;;;;;;;;;;;;;;;15.18;83.95;99704.41;5047819;28;19920;-94
2022/09/28 02:16:48;;;;;;;;;;;;;;;15.24;83.52;99708.09;5041537;28;20011;-88
2022/09/28 02:19:17;;;;;;;;;;;;;;;15.24;83.36;99700.84;5047191;28;19921;-88
2022/09/28 02:22:00;;;;;;;;;;;;;;;15.17;83.28;99697.31;5063072;28;19928;-88
2022/09/28 02:24:29;;;;;;;;;;;;;;;15.21;83.08;99703.97;5043619;28;19932;-90
2022/09/28 02:26:55;;;;;;;;;;;;;;;15.18;82.82;99707.94;5019504;28;20380;-88
2022/09/28 02:29:21;;;;;;;;;;;;;;;15.21;82.79;99709.38;5034215;28;20351;-89
2022/09/28 02:31:49;;;;;;;;;;;;;;;15.21;82.81;99712.06;5031241;28;19927;-89
2022/09/28 02:34:15;;;;;;;;;;;;;;;15.23;82.49;99718.13;5027990;28;19928;-89
2022/09/28 02:36:40;;;;;;;;;;;;;;;15.26;82.48;99714.16;5048492;28;20349;-89
2022/09/28 02:39:11;;;;;;;;;;;;;;;15.31;81.86;99709.75;5046902;28;19916;-90
2022/09/28 02:41:55;;;;;;;;;;;;;;;15.26;82.02;99717.69;5021592;28;19975;-89
2022/09/28 02:44:26;;;;;;;;;;;;;;;15.26;82.25;99717.69;5046952;28;19917;-88
2022/09/28 02:47:12;;;;;;;;;;;;;;;15.33;81.88;99723.06;5047029;28;19964;-89
2022/09/28 02:49:44;;;;;;;;;;;;;;;15.32;82.10;99718.72;4998463;28;20009;-88
2022/09/28 02:52:38;;;;;;;;;;;;;;;15.16;82.97;99717.31;5048891;28;19958;-89
2022/09/28 02:55:34;;;;;;;;;;;;;;;15.08;84.02;99721.09;5002549;28;19928;-89
2022/09/28 02:58:06;;;;;;;;;;;;;;;15.08;83.86;99728.38;4955827;28;19918;-88
2022/09/28 03:00:32;;;;;;;;;;;;;;;15.04;84.61;99735.25;5044830;28;19990;-90
2022/09/28 03:03:08;;;;;;;;;;;;;;;15.13;84.05;99728.56;5045716;28;19960;-87
2022/09/28 03:05:49;;;;;;;;;;;;;;;14.96;85.09;99733.59;5034603;28;19913;-89
2022/09/28 03:08:26;;;;;;;;;;;;;;;14.98;85.08;99726.97;5051578;28;19946;-89
2022/09/28 03:10:57;;;;;;;;;;;;;;;14.90;85.45;99729.06;5054782;28;19916;-89
2022/09/28 03:13:23;;;;;;;;;;;;;;;14.81;85.93;99728.44;5064046;28;19916;-88
2022/09/28 03:15:48;;;;;;;;;;;;;;;14.71;86.20;99728.88;5028699;28;20373;-93
2022/09/28 03:18:17;;;;;;;;;;;;;;;14.75;86.12;99726.59;5053360;28;19913;-91
2022/09/28 03:20:43;;;;;;;;;;;;;;;14.74;86.38;99741.16;5031350;28;20253;-90
2022/09/28 03:23:08;;;;;;;;;;;;;;;14.71;86.03;99725.34;5017371;28;20023;-88
2022/09/28 03:25:34;;;;;;;;;;;;;;;14.64;86.11;99727.22;5034636;28;20018;-90
2022/09/28 03:27:59;;;;;;;;;;;;;;;14.68;85.73;99733.84;5048422;28;19917;-88
2022/09/28 03:30:25;;;;;;;;;;;;;;;14.70;85.31;99740.75;5047148;28;20320;-89
2022/09/28 03:33:01;;;;;;;;;;;;;;;14.73;85.02;99739.50;5050092;28;20277;-89
2022/09/28 03:35:26;;;;;;;;;;;;;;;14.75;84.54;99753.66;5034797;28;19924;-89
2022/09/28 03:37:55;;;;;;;;;;;;;;;14.78;84.28;99740.50;5033174;28;19924;-90
2022/09/28 03:40:20;;;;;;;;;;;;;;;14.81;84.02;99747.38;5031729;28;19952;-90
2022/09/28 03:42:46;;;;;;;;;;;;;;;14.81;83.94;99752.78;5026029;28;19951;-89
2022/09/28 03:45:11;;;;;;;;;;;;;;;14.94;83.09;99752.78;5044326;28;19920;-89
2022/09/28 03:47:37;;;;;;;;;;;;;;;14.95;83.03;99750.91;5041905;28;20416;-89
2022/09/28 03:50:02;;;;;;;;;;;;;;;14.97;82.92;99754.22;5043568;28;19917;-90
2022/09/28 03:52:28;;;;;;;;;;;;;;;14.92;83.15;99752.16;5025492;28;19917;-89
2022/09/28 03:54:53;;;;;;;;;;;;;;;14.92;83.20;99754.03;5023737;28;21018;-87
2022/09/28 03:57:18;;;;;;;;;;;;;;;14.94;82.89;99747.38;5043478;28;20389;-87
2022/09/28 03:59:44;;;;;;;;;;;;;;;14.96;83.06;99741.72;5005779;28;19924;-87
2022/09/28 04:02:09;;;;;;;;;;;;;;;14.97;82.91;99744.22;5045048;28;20011;-87
2022/09/28 04:04:35;;;;;;;;;;;;;;;15.01;82.79;99749.19;5044311;28;19917;-86
2022/09/28 04:07:00;;;;;;;;;;;;;;;15.08;82.41;99750.88;5028123;28;20454;-85
2022/09/28 04:09:25;;;;;;;;;;;;;;;15.09;82.46;99749.00;5024569;28;19939;-85
2022/09/28 04:11:51;;;;;;;;;;;;;;;15.11;82.24;99746.91;5029475;28;19967;-85
2022/09/28 04:14:16;;;;;;;;;;;;;;;15.09;82.41;99738.97;5049168;28;19938;-85
2022/09/28 04:16:42;;;;;;;;;;;;;;;15.16;82.22;99747.09;5049169;28;20058;-86
2022/09/28 04:19:08;;;;;;;;;;;;;;;15.15;82.89;99737.31;5052828;28;19913;-85
2022/09/28 04:21:34;;;;;;;;;;;;;;;15.10;82.91;99743.38;5052625;28;20069;-86
2022/09/28 04:24:03;;;;;;;;;;;;;;;15.12;82.80;99743.13;5051339;28;19963;-86
2022/09/28 04:26:29;;;;;;;;;;;;;;;15.15;82.83;99748.97;5043721;28;19955;-85
2022/09/28 04:32:05;;;;;;;;;;;;;;;15.25;82.36;99745.00;5049916;28;20343;-85
2022/09/28 04:34:32;;;;;;;;;;;;;;;15.23;82.46;99756.03;5033693;28;20281;-86
2022/09/28 04:36:59;;;;;;;;;;;;;;;15.24;82.26;99762.25;5009574;28;19928;-85
2022/09/28 04:39:26;;;;;;;;;;;;;;;15.30;81.74;99756.00;5024036;28;19913;-85
2022/09/28 04:41:51;;;;;;;;;;;;;;;15.34;81.50;99766.19;5013657;28;19952;-86
2022/09/28 04:44:17;;;;;;;;;;;;;;;15.28;82.00;99777.03;5046900;28;19967;-87
2022/09/28 04:46:42;;;;;;;;;;;;;;;15.21;81.72;99774.34;5052964;28;19920;-87
2022/09/28 04:49:09;;;;;;;;;;;;;;;15.18;81.58;99777.50;5063510;28;19973;-83
2022/09/28 04:51:34;;;;;;;;;;;;;;;15.14;81.95;99773.53;5054359;28;19931;-83
2022/09/28 04:54:00;;;;;;;;;;;;;;;15.30;81.38;99778.50;5047829;28;20027;-87
2022/09/28 04:56:25;;;;;;;;;;;;;;;15.28;81.72;99777.88;5045800;28;19924;-84
2022/09/28 04:58:50;;;;;;;;;;;;;;;15.32;81.65;99781.00;5026615;28;19928;-85
2022/09/28 05:01:17;;;;;;;;;;;;;;;15.38;81.51;99790.97;5046108;28;19927;-84
2022/09/28 05:03:43;;;;;;;;;;;;;;;15.46;81.22;99792.63;5051540;28;19955;-83
2022/09/28 05:06:09;;;;;;;;;;;;;;;15.45;81.28;99790.94;5048430;28;19921;-83
2022/09/28 05:08:35;;;;;;;;;;;;;;;15.46;81.68;99798.03;5023654;28;19917;-84
2022/09/28 05:11:02;;;;;;;;;;;;;;;15.37;81.47;99790.13;5010638;28;19932;-86
2022/09/28 05:13:27;;;;;;;;;;;;;;;15.48;81.42;99794.06;4996387;28;19924;-83
2022/09/28 05:15:53;;;;;;;;;;;;;;;15.54;81.26;99806.72;5050778;28;19913;-86
2022/09/28 05:18:18;;;;;;;;;;;;;;;15.66;81.17;99808.78;5032289;28;20487;-85
2022/09/28 05:20:44;;;;;;;;;;;;;;;15.78;81.03;99802.53;5007867;28;20015;-82
2022/09/28 05:23:10;;;;;;;;;;;;;;;15.85;81.16;99801.63;5050065;28;19920;-82
2022/09/28 05:25:35;;;;;;;;;;;;;;;15.94;80.59;99800.34;5048569;28;19982;-81
2022/09/28 05:28:02;;;;;;;;;;;;;;;15.88;80.48;99809.34;5051078;28;20349;-82
2022/09/28 05:30:27;;;;;;;;;;;;;;;15.88;79.91;99817.50;5049737;28;19939;-83
2022/09/28 05:32:52;;;;;;;;;;;;;;;15.92;79.96;99807.84;5030653;28;20329;-84
2022/09/28 05:35:18;;;;;;;;;;;;;;;15.97;79.78;99816.19;5030338;28;20087;-83
2022/09/28 05:37:43;;;;;;;;;;;;;;;16.16;79.73;99820.66;5031395;28;19917;-88
2022/09/28 05:40:09;;;;;;;;;;;;;;;16.46;79.20;99829.00;5032128;28;19928;-84
2022/09/28 05:42:35;;;;;;;;;;;;;;;17.42;77.01;99823.34;5015333;28;20374;-85
2022/09/28 05:45:02;;;;;;;;;;;;;;;18.35;72.66;99833.91;5049484;28;19923;-85
2022/09/28 05:47:29;;;;;;;;;;;;;;;19.00;69.18;99834.16;5050779;28;19913;-84
2022/09/28 05:49:55;;;;;;;;;;;;;;;19.55;67.32;99829.13;5051231;28;19926;-85
2022/09/28 05:52:21;;;;;;;;;;;;;;;20.09;64.78;99826.16;5033195;28;19908;-86
2022/09/28 05:54:46;;;;;;;;;;;;;;;20.57;62.50;99843.97;5050261;28;19923;-86
2022/09/28 05:57:12;;;;;;;;;;;;;;;20.90;61.42;99836.03;5045572;28;19924;-88
2022/09/28 05:59:37;;;;;;;;;;;;;;;21.06;59.78;99833.28;5032353;28;19913;-87
2022/09/28 06:02:04;;;;;;;;;;;;;;;20.83;59.97;99834.28;5032216;28;20376;-90
2022/09/28 06:04:29;;;;;;;;;;;;;;;20.98;60.31;99832.91;5032460;28;20399;-87
2022/09/28 06:06:55;;;;;;;;;;;;;;;20.99;60.24;99829.91;5032143;28;19932;-87
2022/09/28 06:09:22;;;;;;;;;;;;;;;21.18;59.63;99832.38;5049904;28;20043;-86
2022/09/28 06:11:47;;;;;;;;;;;;;;;21.50;59.42;99835.31;5050285;28;20293;-87
2022/09/28 06:14:13;;;;;;;;;;;;;;;21.92;56.90;99826.53;5031669;28;20015;-88
2022/09/28 06:16:41;;;;;;;;;;;;;;;22.29;56.18;99836.84;5044852;28;20318;-86
2022/09/28 06:19:12;;;;;;;;;;;;;;;22.27;55.04;99839.00;5043022;28;19943;-84
2022/09/28 06:21:37;;;;;;;;;;;;;;;22.67;54.48;99834.97;5033481;28;20380;-83
2022/09/28 06:24:03;;;;;;;;;;;;;;;23.14;53.06;99839.75;5049576;28;19944;-81
2022/09/28 06:26:30;;;;;;;;;;;;;;;23.42;51.86;99837.75;5053917;28;19924;-84
2022/09/28 06:28:55;;;;;;;;;;;;;;;23.56;51.12;99842.47;5032263;28;19917;-85
2022/09/28 06:31:22;;;;;;;;;;;;;;;23.79;50.73;99835.75;5032136;28;19935;-84
2022/09/28 06:33:51;;;;;;;;;;;;;;;24.18;50.43;99840.78;5031896;28;19909;-84
2022/09/28 06:36:16;;;;;;;;;;;;;;;24.38;49.49;99839.19;5050569;28;20312;-87
2022/09/28 06:38:41;;;;;;;;;;;;;;;24.72;48.89;99849.69;5028093;28;19917;-84
2022/09/28 06:41:07;;;;;;;;;;;;;;;25.01;48.28;99842.53;5036096;28;20420;-86
2022/09/28 06:43:33;;;;;;;;;;;;;;;25.25;47.34;99831.00;5053622;28;19920;-84
2022/09/28 06:45:59;;;;;;;;;;;;;;;25.51;46.79;99834.50;5054188;28;19913;-85
2022/09/28 06:48:25;;;;;;;;;;;;;;;25.86;45.48;99835.47;5054822;28;19919;-85
2022/09/28 06:50:50;;;;;;;;;;;;;;;26.13;44.03;99831.47;5052155;28;19943;-85
2022/09/28 06:53:15;;;;;;;;;;;;;;;26.45;42.48;99836.53;5035240;28;19917;-85
2022/09/28 06:55:44;;;;;;;;;;;;;;;26.70;42.10;99839.13;5055452;28;19923;-87
2022/09/28 06:58:10;;;;;;;;;;;;;;;27.04;41.11;99848.47;5053192;28;19931;-86
2022/09/28 07:00:36;;;;;;;;;;;;;;;27.35;39.94;99840.75;5016992;28;19916;-87
2022/09/28 07:03:01;;;;;;;;;;;;;;;27.50;39.17;99829.53;5032570;28;19967;-83
2022/09/28 07:05:28;;;;;;;;;;;;;;;27.86;37.86;99836.59;5033239;28;20023;-88
2022/09/28 07:07:54;;;;;;;;;;;;;;;27.96;37.81;99840.06;5053391;28;19968;-87
2022/09/28 07:10:23;;;;;;;;;;;;;;;28.30;37.03;99833.47;5029080;28;19917;-90
2022/09/28 07:12:49;;;;;;;;;;;;;;;28.55;37.69;99839.78;5049969;28;20055;-89
2022/09/28 07:15:15;;;;;;;;;;;;;;;28.87;37.09;99839.00;5017209;28;19913;-88
2022/09/28 07:17:41;;;;;;;;;;;;;;;29.40;34.98;99835.00;5035116;28;20418;-86
2022/09/28 07:20:07;;;;;;;;;;;;;;;29.43;34.88;99839.91;5024298;28;19944;-89
2022/09/28 07:22:33;;;;;;;;;;;;;;;30.21;33.88;99837.22;5033793;28;19921;-87
2022/09/28 07:24:59;;;;;;;;;;;;;;;30.71;32.93;99839.94;5009187;28;19923;-86
2022/09/28 07:27:25;;;;;;;;;;;;;;;31.30;32.15;99840.66;5031366;28;20320;-84
2022/09/28 07:29:53;;;;;;;;;;;;;;;31.64;31.69;99843.91;5033386;28;19917;-85
2022/09/28 07:32:23;;;;;;;;;;;;;;;32.24;30.58;99831.28;5037166;28;19917;-90
2022/09/28 07:34:49;;;;;;;;;;;;;;;32.80;30.44;99829.50;5033214;28;19952;-88
2022/09/28 07:37:17;;;;;;;;;;;;;;;32.66;29.79;99824.09;5052593;28;20352;-88
2022/09/28 07:42:29;;;;;;;;;;;;;;;33.25;28.94;99828.25;5051346;28;19923;-87
2022/09/28 07:44:55;;;;;;;;;;;;;;;33.89;28.11;99827.34;5019793;28;19916;-87
2022/09/28 07:47:25;;;;;;;;;;;;;;;34.77;27.05;99822.72;5046979;28;19931;-86
2022/09/28 07:49:55;;;;;;;;;;;;;;;36.02;25.24;99828.94;5061383;28;19969;-86
2022/09/28 07:52:25;;;;;;;;;;;;;;;36.60;23.96;99825.88;5032688;28;19924;-87
2022/09/28 07:54:56;;;;;;;;;;;;;;;37.12;23.36;99822.94;5025849;28;20003;-87
2022/09/28 07:57:21;;;;;;;;;;;;;;;38.00;21.99;99819.94;5049783;28;19913;-85
2022/09/28 07:59:52;;;;;;;;;;;;;;;38.73;21.37;99823.06;5033535;28;20307;-86
2022/09/28 08:02:18;;;;;;;;;;;;;;;39.71;20.32;99820.75;5034069;28;19967;-86
2022/09/28 08:04:44;;;;;;;;;;;;;;;39.86;20.38;99816.22;5030566;28;20308;-85
2022/09/28 08:07:10;;;;;;;;;;;;;;;39.46;19.14;99809.16;5034403;28;19956;-85
2022/09/28 08:09:36;;;;;;;;;;;;;;;39.35;18.97;99808.13;5033336;28;20333;-85
2022/09/28 08:12:03;;;;;;;;;;;;;;;39.65;18.80;99805.41;5050139;28;19916;-85
2022/09/28 08:14:28;;;;;;;;;;;;;;;40.11;18.33;99808.13;5014702;28;19947;-86
2022/09/28 08:16:54;;;;;;;;;;;;;;;41.19;18.12;99801.72;5045754;28;19913;-85
2022/09/28 08:19:19;;;;;;;;;;;;;;;41.25;17.52;99802.97;5017160;28;19916;-87
2022/09/28 08:21:48;;;;;;;;;;;;;;;41.32;17.65;99794.56;5049827;28;19916;-85
2022/09/28 08:24:14;;;;;;;;;;;;;;;41.63;16.94;99792.44;5047556;28;19928;-86
2022/09/28 08:26:39;;;;;;;;;;;;;;;41.79;17.07;99792.09;5030098;28;20020;-87
2022/09/28 08:29:05;;;;;;;;;;;;;;;42.77;16.27;99794.16;5017243;28;20003;-85
2022/09/28 08:31:31;;;;;;;;;;;;;;;43.01;16.03;99789.78;5031023;28;20410;-89
2022/09/28 08:33:56;;;;;;;;;;;;;;;44.04;15.07;99800.25;5031381;28;20043;-88
2022/09/28 08:36:23;;;;;;;;;;;;;;;44.02;14.18;99791.34;5027072;28;20276;-86
2022/09/28 08:38:48;;;;;;;;;;;;;;;43.94;14.10;99794.56;5030790;28;19969;-87
2022/09/28 08:41:14;;;;;;;;;;;;;;;44.73;13.62;99802.75;5049641;28;19917;-86
2022/09/28 08:43:46;;;;;;;;;;;;;;;44.09;13.85;99801.03;5051418;28;19935;-87
2022/09/28 08:46:11;;;;;;;;;;;;;;;45.21;13.32;99805.69;5019694;28;19921;-86
2022/09/28 08:48:43;;;;;;;;;;;;;;;45.91;12.83;99805.41;5033398;28;20402;-89
2022/09/28 08:51:16;;;;;;;;;;;;;;;45.14;13.10;99819.09;5034112;28;19924;-86
2022/09/28 08:53:47;;;;;;;;;;;;;;;46.06;12.25;99802.47;5045889;28;20012;-84
2022/09/28 08:56:31;;;;;;;;;;;;;;;45.14;12.81;99799.25;5033246;28;19966;-85
2022/09/28 08:59:01;;;;;;;;;;;;;;;45.84;12.61;99799.03;5050065;28;19917;-86
2022/09/28 09:01:31;;;;;;;;;;;;;;;44.46;13.28;99791.97;5032509;28;19916;-85
2022/09/28 09:03:58;;;;;;;;;;;;;;;46.27;12.23;99796.50;5042699;28;19919;-86
2022/09/28 09:06:27;;;;;;;;;;;;;;;46.18;12.37;99786.91;5067506;28;19920;-84
2022/09/28 09:09:02;;;;;;;;;;;;;;;46.37;12.36;99791.13;5061301;28;19923;-85
2022/09/28 09:11:27;;;;;;;;;;;;;;;46.78;11.85;99793.00;5052684;28;19917;-84
2022/09/28 09:13:52;;;;;;;;;;;;;;;46.29;11.69;99794.06;5051140;28;19920;-85
2022/09/28 09:16:27;;;;;;;;;;;;;;;44.77;12.44;99795.84;5050849;28;19967;-86
2022/09/28 09:18:59;;;;;;;;;;;;;;;44.80;12.49;99799.88;5016976;28;20261;-86
2022/09/28 09:21:36;;;;;;;;;;;;;;;44.22;12.77;99811.47;5050805;28;19913;-85
2022/09/28 09:24:09;;;;;;;;;;;;;;;45.18;12.13;99805.69;5033114;28;19913;-85
2022/09/28 09:26:37;;;;;;;;;;;;;;;45.51;11.72;99798.53;5029172;28;20122;-85
2022/09/28 09:29:30;;;;;;;;;;;;;;;44.58;12.14;99797.19;5045432;28;19917;-85
2022/09/28 09:32:14;;;;;;;;;;;;;;;44.99;12.36;99793.69;4970734;28;19969;-85
2022/09/28 09:35:03;;;;;;;;;;;;;;;45.05;12.10;99789.19;4970186;28;19918;-85
2022/09/28 09:37:28;;;;;;;;;;;;;;;45.60;11.33;99801.72;5012358;28;19917;-84
2022/09/28 09:40:03;;;;;;;;;;;;;;;44.93;11.56;99789.66;5040196;28;19916;-84
2022/09/28 09:42:37;;;;;;;;;;;;;;;44.93;11.53;99792.50;5051706;28;19908;-85
2022/09/28 09:45:22;;;;;;;;;;;;;;;44.15;11.99;99800.19;5051502;28;19917;-86
2022/09/28 09:47:55;;;;;;;;;;;;;;;44.71;10.50;99797.50;5051122;28;20062;-86
2022/09/28 09:50:28;;;;;;;;;;;;;;;44.02;11.06;99796.19;5050945;28;20408;-84
2022/09/28 09:52:56;;;;;;;;;;;;;;;43.04;11.29;99805.94;5054316;28;19915;-83
2022/09/28 09:55:27;;;;;;;;;;;;;;;43.28;10.97;99803.56;5057601;28;19955;-82
2022/09/28 09:58:05;;;;;;;;;;;;;;;43.38;11.71;99800.72;5060664;28;19924;-83
2022/09/28 10:00:31;;;;;;;;;;;;;;;44.77;10.77;99801.53;5056987;28;20078;-85
2022/09/28 10:02:58;;;;;;;;;;;;;;;44.30;10.80;99800.13;5033914;28;19909;-85
2022/09/28 10:05:26;;;;;;;;;;;;;;;44.18;11.11;99799.34;5016719;28;20314;-84
2022/09/28 10:07:51;;;;;;;;;;;;;;;44.07;11.07;99798.63;5019741;28;19919;-85
2022/09/28 10:10:20;;;;;;;;;;;;;;;44.13;10.00;99799.78;5053438;28;20291;-85
2022/09/28 10:12:47;;;;;;;;;;;;;;;43.25;10.68;99805.19;5036950;28;19919;-85
2022/09/28 10:15:14;;;;;;;;;;;;;;;43.92;10.67;99791.34;5053974;28;19921;-84
2022/09/28 10:17:40;;;;;;;;;;;;;;;44.94;10.03;99799.81;5035841;28;19913;-85
2022/09/28 10:20:10;;;;;;;;;;;;;;;45.42;9.85;99799.00;5054162;28;19939;-85
2022/09/28 10:22:36;;;;;;;;;;;;;;;44.45;9.72;99784.72;5037289;28;19908;-84
2022/09/28 10:25:01;;;;;;;;;;;;;;;43.90;10.94;99793.78;5054476;28;20331;-85
2022/09/28 10:27:27;;;;;;;;;;;;;;;43.28;11.13;99793.03;5035420;28;19921;-86
2022/09/28 10:29:56;;;;;;;;;;;;;;;44.13;10.24;99796.16;5035581;28;19921;-84
2022/09/28 10:32:26;;;;;;;;;;;;;;;43.42;10.66;99793.03;5025859;28;20409;-85
2022/09/28 10:34:53;;;;;;;;;;;;;;;43.82;10.16;99790.97;5051209;28;19920;-85
2022/09/28 10:37:19;;;;;;;;;;;;;;;42.75;10.58;99794.56;5053333;28;19923;-87
2022/09/28 10:39:45;;;;;;;;;;;;;;;42.99;9.97;99789.38;5035766;28;19921;-86
2022/09/28 10:42:19;;;;;;;;;;;;;;;43.32;9.99;99790.19;5053118;28;19917;-84
2022/09/28 10:44:49;;;;;;;;;;;;;;;42.68;10.58;99779.59;5053640;28;19928;-84
2022/09/28 10:47:16;;;;;;;;;;;;;;;41.69;11.07;99773.91;5036225;28;19919;-84
2022/09/28 10:49:42;;;;;;;;;;;;;;;42.34;10.54;99762.97;5053209;28;19966;-84
2022/09/28 10:52:26;;;;;;;;;;;;;;;43.09;9.95;99773.63;5035547;28;20384;-83
2022/09/28 10:54:52;;;;;;;;;;;;;;;42.41;10.01;99762.22;5052522;28;19920;-84
2022/09/28 10:57:47;;;;;;;;;;;;;;;41.80;10.81;99773.19;5032420;28;20003;-84
2022/09/28 11:00:42;;;;;;;;;;;;;;;40.81;11.40;99774.75;5025015;28;19920;-84
2022/09/28 11:03:23;;;;;;;;;;;;;;;40.88;11.67;99769.19;5042672;28;19916;-85
2022/09/28 11:05:54;;;;;;;;;;;;;;;41.16;11.39;99763.03;5034917;28;19916;-84
2022/09/28 11:08:24;;;;;;;;;;;;;;;41.10;11.74;99759.75;5053638;28;19913;-85
2022/09/28 11:10:59;;;;;;;;;;;;;;;40.89;10.92;99765.19;5035033;28;19921;-85
2022/09/28 11:13:24;;;;;;;;;;;;;;;40.26;11.62;99766.91;5035226;28;19924;-85
2022/09/28 11:15:51;;;;;;;;;;;;;;;40.42;11.66;99755.44;5035188;28;19917;-85
2022/09/28 11:18:19;;;;;;;;;;;;;;;39.74;12.05;99755.31;5053676;28;20314;-85
2022/09/28 11:20:45;;;;;;;;;;;;;;;39.50;11.64;99762.22;5052031;28;20353;-84
2022/09/28 11:23:17;;;;;;;;;;;;;;;38.40;12.38;99754.22;5035231;28;20057;-87
2022/09/28 11:25:43;;;;;;;;;;;;;;;39.56;11.89;99748.63;5031758;28;19921;-87
2022/09/28 11:28:14;;;;;;;;;;;;;;;39.56;11.79;99741.00;5053810;28;19920;-88
2022/09/28 11:30:51;;;;;;;;;;;;;;;39.28;12.42;99746.97;5052814;28;19916;-88
2022/09/28 11:33:19;;;;;;;;;;;;;;;38.07;13.60;99745.50;5035974;28;19920;-90
2022/09/28 11:35:51;;;;;;;;;;;;;;;38.79;13.51;99747.72;5035170;28;19928;-91
2022/09/28 11:38:38;;;;;;;;;;;;;;;38.47;13.97;99749.94;5052627;28;19920;-87
2022/09/28 11:41:22;;;;;;;;;;;;;;;37.61;14.32;99745.28;5034395;28;20320;-85
2022/09/28 11:43:51;;;;;;;;;;;;;;;37.49;13.45;99732.97;5050653;28;19912;-85
2022/09/28 11:46:24;;;;;;;;;;;;;;;36.91;14.49;99741.94;5052334;28;19917;-85
2022/09/28 11:49:13;;;;;;;;;;;;;;;35.80;15.46;99749.97;5034592;28;19967;-86
2022/09/28 11:51:38;;;;;;;;;;;;;;;34.82;16.01;99744.34;5039703;28;19978;-85
2022/09/28 11:54:13;;;;;;;;;;;;;;;34.25;16.55;99741.13;5016379;28;19921;-85
2022/09/28 11:56:39;;;;;;;;;;;;;;;33.99;16.63;99737.69;5029742;28;19938;-84
2022/09/28 11:59:08;;;;;;;;;;;;;;;33.47;17.58;99729.69;5034629;28;20438;-85
2022/09/28 12:01:47;;;;;;;;;;;;;;;33.34;18.34;99735.19;5028647;28;20381;-86
2022/09/28 12:04:26;;;;;;;;;;;;;;;33.66;17.85;99732.88;5034202;28;19939;-85
2022/09/28 12:06:51;;;;;;;;;;;;;;;33.61;17.76;99731.09;5009125;28;19913;-86
2022/09/28 12:09:21;;;;;;;;;;;;;;;33.85;17.85;99735.19;5051137;28;20356;-85
2022/09/28 12:11:47;;;;;;;;;;;;;;;32.99;17.94;99734.47;5036122;28;19950;-85
2022/09/28 12:14:16;;;;;;;;;;;;;;;32.68;18.16;99727.22;5054653;28;20007;-86
2022/09/28 12:16:49;;;;;;;;;;;;;;;32.36;18.18;99732.19;5055145;28;19909;-85
2022/09/28 12:19:21;;;;;;;;;;;;;;;31.94;18.56;99723.50;5018941;28;19913;-84
2022/09/28 12:21:57;;;;;;;;;;;;;;;31.78;19.21;99738.22;5052855;28;19920;-86
2022/09/28 12:24:26;;;;;;;;;;;;;;;31.90;18.85;99741.16;5047422;28;19953;-84
2022/09/28 12:27:04;;;;;;;;;;;;;;;32.11;19.26;99735.78;5034657;28;19961;-85
2022/09/28 12:29:50;;;;;;;;;;;;;;;32.16;19.40;99736.44;5051522;28;19916;-86
2022/09/28 12:32:31;;;;;;;;;;;;;;;32.11;19.53;99738.56;5033584;28;19912;-86
2022/09/28 12:34:57;;;;;;;;;;;;;;;32.00;20.02;99746.41;5050840;28;19955;-86
2022/09/28 12:37:44;;;;;;;;;;;;;;;32.25;19.41;99749.53;5051621;28;19916;-86
2022/09/28 12:40:25;;;;;;;;;;;;;;;32.25;19.41;99746.75;5051500;28;19966;-85
2022/09/28 12:42:54;;;;;;;;;;;;;;;32.39;23.41;99752.94;5050445;28;19928;-86
2022/09/28 12:45:22;;;;;;;;;;;;;;;32.17;27.19;99757.56;5050216;28;20043;-86
2022/09/28 12:47:56;;;;;;;;;;;;;;;31.43;28.90;99749.25;5046833;28;19917;-85
2022/09/28 12:50:30;;;;;;;;;;;;;;;30.79;30.25;99753.19;5048875;28;19952;-86
2022/09/28 12:52:55;;;;;;;;;;;;;;;30.29;31.12;99750.56;5022783;28;19917;-84
2022/09/28 12:55:28;;;;;;;;;;;;;;;29.22;34.27;99735.16;5116178;27;19951;-85
2022/09/28 12:57:56;;;;;;;;;;;;;;;28.64;35.85;99734.84;5100754;28;19978;-87
2022/09/28 13:00:22;;;;;;;;;;;;;;;28.44;36.55;99741.50;5089926;28;20389;-89
2022/09/28 13:02:50;;;;;;;;;;;;;;;27.76;38.00;99738.09;5109499;28;20013;-85